createdAt,value
2019-05-25T00:00:45.745Z,73.77
2019-05-25T00:03:16.844Z,73.59
2019-05-25T00:05:47.981Z,73.40
2019-05-25T00:08:19.477Z,73.23
2019-05-25T00:10:50.729Z,73.20
2019-05-25T00:13:21.917Z,72.90
2019-05-25T00:15:53.181Z,72.58
2019-05-25T00:18:25.010Z,72.31
2019-05-25T00:20:56.423Z,72.00
2019-05-25T00:23:27.702Z,71.76
2019-05-25T00:25:58.995Z,71.52
2019-05-25T00:28:30.593Z,71.32
2019-05-25T00:31:01.836Z,71.16
2019-05-25T00:33:33.290Z,70.95
2019-05-25T00:36:04.861Z,70.89
2019-05-25T00:38:35.979Z,70.87
2019-05-25T00:41:07.158Z,70.75
2019-05-25T00:43:38.670Z,70.74
2019-05-25T00:46:09.966Z,70.76
2019-05-25T00:48:41.038Z,70.69
2019-05-25T00:51:12.105Z,70.59
2019-05-25T00:53:43.262Z,70.54
2019-05-25T00:56:14.672Z,70.48
2019-05-25T00:58:45.719Z,70.39
2019-05-25T01:01:16.785Z,70.29
2019-05-25T01:03:48.104Z,70.26
2019-05-25T01:06:19.272Z,70.22
2019-05-25T01:08:50.502Z,70.31
2019-05-25T01:11:21.816Z,70.32
2019-05-25T01:13:53.243Z,70.32
2019-05-25T01:16:24.406Z,70.59
2019-05-25T01:18:55.719Z,71.01
2019-05-25T01:21:27.355Z,70.97
2019-05-25T01:23:58.796Z,71.52
2019-05-25T01:26:29.896Z,72.07
2019-05-25T01:29:01.691Z,72.07
2019-05-25T01:31:32.855Z,71.97
2019-05-25T01:34:04.119Z,71.85
2019-05-25T01:36:35.174Z,71.65
2019-05-25T01:39:08.172Z,71.42
2019-05-25T01:41:39.422Z,71.11
2019-05-25T01:44:10.735Z,71.04
2019-05-25T01:46:41.932Z,70.97
2019-05-25T01:49:12.981Z,70.86
2019-05-25T01:51:44.126Z,70.67
2019-05-25T01:54:15.464Z,70.58
2019-05-25T01:56:46.701Z,70.45
2019-05-25T01:59:18.087Z,70.31
2019-05-25T02:01:49.172Z,70.13
2019-05-25T02:04:20.449Z,69.91
2019-05-25T02:06:51.468Z,70.32
2019-05-25T02:09:22.530Z,70.87
2019-05-25T02:11:53.796Z,71.11
2019-05-25T02:14:24.898Z,71.59
2019-05-25T02:16:56.206Z,71.81
2019-05-25T02:19:28.189Z,72.42
2019-05-25T02:21:59.696Z,72.76
2019-05-25T02:24:31.056Z,72.68
2019-05-25T02:27:02.415Z,72.64
2019-05-25T02:29:33.706Z,72.68
2019-05-25T02:32:05.276Z,72.76
2019-05-25T02:34:36.571Z,73.04
2019-05-25T02:37:07.790Z,73.57
2019-05-25T02:39:39.049Z,73.39
2019-05-25T02:42:10.331Z,73.36
2019-05-25T02:44:41.508Z,73.44
2019-05-25T02:47:12.774Z,73.52
2019-05-25T02:49:45.589Z,73.57
2019-05-25T02:52:16.871Z,73.59
2019-05-25T02:54:47.793Z,73.77
2019-05-25T02:57:19.151Z,73.82
2019-05-25T02:59:50.199Z,73.57
2019-05-25T03:02:22.197Z,73.56
2019-05-25T03:04:53.663Z,73.55
2019-05-25T03:07:26.214Z,73.52
2019-05-25T03:09:59.941Z,73.58
2019-05-25T03:12:32.733Z,73.29
2019-05-25T03:15:06.200Z,72.84
2019-05-25T03:17:38.428Z,72.66
2019-05-25T03:20:11.075Z,72.44
2019-05-25T03:22:42.395Z,72.22
2019-05-25T03:25:14.150Z,72.06
2019-05-25T03:27:45.713Z,71.89
2019-05-25T03:30:20.394Z,71.74
2019-05-25T03:32:51.663Z,71.61
2019-05-25T03:35:22.836Z,71.29
2019-05-25T03:37:57.486Z,70.86
2019-05-25T03:40:28.846Z,70.72
2019-05-25T03:42:59.935Z,70.63
2019-05-25T03:45:31.129Z,70.64
2019-05-25T03:48:02.200Z,70.57
2019-05-25T03:50:33.342Z,70.27
2019-05-25T03:53:04.963Z,70.16
2019-05-25T03:55:36.143Z,69.95
2019-05-25T03:58:07.492Z,69.68
2019-05-25T04:00:39.539Z,69.61
2019-05-25T04:03:10.753Z,69.66
2019-05-25T04:05:41.843Z,69.53
2019-05-25T04:08:13.328Z,69.34
2019-05-25T04:10:44.470Z,69.09
2019-05-25T04:13:15.838Z,68.86
2019-05-25T04:15:47.134Z,68.66
2019-05-25T04:18:18.535Z,68.47
2019-05-25T04:20:49.783Z,68.27
2019-05-25T04:23:21.175Z,68.12
2019-05-25T04:25:52.351Z,68.01
2019-05-25T04:28:24.553Z,67.96
2019-05-25T04:30:55.608Z,67.87
2019-05-25T04:33:26.981Z,67.82
2019-05-25T04:35:58.080Z,67.70
2019-05-25T04:38:29.158Z,67.41
2019-05-25T04:41:00.416Z,67.39
2019-05-25T04:43:31.580Z,67.27
2019-05-25T04:46:02.466Z,67.18
2019-05-25T04:48:33.703Z,67.04
2019-05-25T04:51:04.964Z,66.80
2019-05-25T04:53:36.240Z,66.47
2019-05-25T04:56:07.311Z,66.22
2019-05-25T04:58:38.604Z,65.94
2019-05-25T05:01:10.155Z,65.71
2019-05-25T05:03:41.212Z,65.24
2019-05-25T05:06:12.498Z,65.02
2019-05-25T05:08:43.636Z,64.45
2019-05-25T05:11:14.670Z,64.35
2019-05-25T05:13:46.550Z,64.18
2019-05-25T05:16:17.613Z,64.02
2019-05-25T05:18:48.594Z,63.76
2019-05-25T05:21:19.714Z,63.54
2019-05-25T05:23:50.905Z,63.06
2019-05-25T05:26:23.567Z,62.81
2019-05-25T05:28:54.797Z,62.49
2019-05-25T05:31:26.097Z,62.20
2019-05-25T05:33:57.314Z,61.98
2019-05-25T05:36:30.072Z,61.51
2019-05-25T05:39:02.509Z,61.15
2019-05-25T05:41:37.441Z,60.70
2019-05-25T05:44:08.987Z,60.19
2019-05-25T05:46:40.566Z,59.70
2019-05-25T05:49:14.200Z,59.35
2019-05-25T05:51:50.971Z,58.93
2019-05-25T05:54:22.058Z,58.83
2019-05-25T05:56:53.273Z,58.54
2019-05-25T05:59:24.804Z,58.24
2019-05-25T06:01:56.092Z,57.74
2019-05-25T06:04:27.316Z,56.82
2019-05-25T06:06:59.671Z,56.49
2019-05-25T06:09:30.724Z,56.05
2019-05-25T06:12:01.786Z,55.90
2019-05-25T06:14:33.005Z,55.56
2019-05-25T06:17:04.380Z,55.38
2019-05-25T06:19:35.760Z,55.25
2019-05-25T06:22:06.865Z,55.17
2019-05-25T06:24:38.158Z,54.48
2019-05-25T06:27:09.279Z,53.81
2019-05-25T06:29:41.018Z,52.75
2019-05-25T06:32:12.528Z,52.72
2019-05-25T06:34:43.642Z,51.91
2019-05-25T06:37:15.488Z,51.61
2019-05-25T06:39:46.568Z,51.10
2019-05-25T06:42:17.785Z,50.44
2019-05-25T06:44:48.994Z,49.94
2019-05-25T06:47:20.229Z,49.54
2019-05-25T06:49:51.418Z,49.19
2019-05-25T06:52:22.661Z,48.47
2019-05-25T06:54:53.992Z,48.08
2019-05-25T06:57:25.271Z,47.41
2019-05-25T06:59:56.478Z,46.66
2019-05-25T07:02:27.929Z,45.99
2019-05-25T07:04:59.003Z,45.10
2019-05-25T07:07:30.271Z,45.01
2019-05-25T07:10:01.538Z,44.63
2019-05-25T07:12:32.702Z,43.39
2019-05-25T07:15:05.429Z,43.62
2019-05-25T07:17:36.929Z,43.81
2019-05-25T07:20:11.867Z,43.93
2019-05-25T07:22:43.042Z,43.97
2019-05-25T07:25:14.925Z,44.33
2019-05-25T07:27:58.642Z,44.46
2019-05-25T07:30:19.823Z,44.06
2019-05-25T07:32:51.133Z,44.16
2019-05-25T07:35:22.187Z,44.54
2019-05-25T07:37:53.554Z,44.67
2019-05-25T07:40:24.597Z,45.03
2019-05-25T07:42:56.063Z,44.75
2019-05-25T07:45:27.058Z,44.41
2019-05-25T07:47:58.213Z,43.68
2019-05-25T07:50:29.717Z,44.06
2019-05-25T07:53:01.516Z,43.44
2019-05-25T07:55:32.519Z,43.88
2019-05-25T07:58:16.928Z,43.66
2019-05-25T08:00:37.043Z,43.82
2019-05-25T08:03:08.565Z,42.99
2019-05-25T08:05:39.759Z,42.99
2019-05-25T08:08:11.441Z,42.67
2019-05-25T08:10:42.601Z,42.21
2019-05-25T08:13:13.833Z,42.33
2019-05-25T08:15:45.025Z,41.84
2019-05-25T08:18:16.249Z,41.13
2019-05-25T08:20:47.765Z,41.77
2019-05-25T08:23:18.915Z,41.51
2019-05-25T08:25:49.950Z,41.51
2019-05-25T08:28:32.088Z,40.84
2019-05-25T08:30:53.783Z,40.06
2019-05-25T08:33:25.368Z,39.23
2019-05-25T08:35:56.647Z,39.93
2019-05-25T08:38:27.698Z,39.64
2019-05-25T08:40:58.676Z,39.53
2019-05-25T08:43:30.773Z,39.57
2019-05-25T08:46:02.126Z,38.42
2019-05-25T08:48:33.267Z,37.17
2019-05-25T08:51:04.350Z,37.66
2019-05-25T08:53:41.297Z,36.36
2019-05-25T08:56:08.126Z,36.39
2019-05-25T08:58:47.963Z,36.92
2019-05-25T09:01:12.232Z,37.21
2019-05-25T09:03:44.282Z,35.38
2019-05-25T09:06:15.798Z,34.69
2019-05-25T09:08:46.898Z,35.15
2019-05-25T09:11:18.321Z,35.10
2019-05-25T09:13:49.599Z,34.42
2019-05-25T09:16:20.526Z,33.68
2019-05-25T09:18:51.650Z,33.11
2019-05-25T09:21:22.878Z,33.27
2019-05-25T09:23:54.029Z,32.38
2019-05-25T09:26:25.628Z,32.75
2019-05-25T09:29:04.518Z,31.97
2019-05-25T09:31:30.212Z,31.96
2019-05-25T09:34:01.211Z,32.08
2019-05-25T09:36:32.523Z,32.11
2019-05-25T09:39:04.101Z,31.70
2019-05-25T09:41:35.631Z,30.75
2019-05-25T09:44:06.809Z,30.48
2019-05-25T09:46:37.926Z,29.40
2019-05-25T09:49:09.192Z,28.65
2019-05-25T09:51:40.265Z,27.50
2019-05-25T09:54:11.689Z,26.62
2019-05-25T09:56:43.023Z,26.31
2019-05-25T09:59:19.969Z,24.93
2019-05-25T10:01:48.474Z,24.36
2019-05-25T10:04:19.886Z,24.36
2019-05-25T10:06:51.016Z,23.87
2019-05-25T10:09:22.153Z,22.91
2019-05-25T10:11:53.501Z,21.88
2019-05-25T10:14:24.493Z,21.87
2019-05-25T10:16:55.752Z,22.01
2019-05-25T10:19:27.009Z,21.94
2019-05-25T10:21:59.629Z,22.24
2019-05-25T10:24:31.011Z,21.68
2019-05-25T10:27:02.357Z,20.42
2019-05-25T10:29:37.032Z,19.93
2019-05-25T10:32:06.335Z,20.18
2019-05-25T10:34:37.507Z,20.37
2019-05-25T10:37:08.743Z,21.77
2019-05-25T10:39:39.710Z,21.77
2019-05-25T10:42:10.932Z,22.24
2019-05-25T10:44:42.285Z,22.23
2019-05-25T10:47:13.620Z,23.07
2019-05-25T10:49:44.672Z,23.09
2019-05-25T10:52:16.338Z,23.42
2019-05-25T10:54:47.615Z,23.44
2019-05-25T10:57:18.862Z,23.35
2019-05-25T10:59:53.113Z,23.88
2019-05-25T11:02:22.841Z,24.15
2019-05-25T11:04:54.166Z,23.94
2019-05-25T11:07:25.234Z,24.05
2019-05-25T11:09:56.327Z,24.19
2019-05-25T11:12:27.521Z,23.19
2019-05-25T11:14:58.776Z,22.95
2019-05-25T11:17:29.944Z,23.07
2019-05-25T11:20:01.279Z,23.58
2019-05-25T11:22:32.358Z,24.05
2019-05-25T11:25:05.252Z,24.76
2019-05-25T11:27:36.548Z,25.51
2019-05-25T11:30:10.233Z,25.73
2019-05-25T11:32:42.208Z,25.45
2019-05-25T11:35:13.810Z,22.54
2019-05-25T11:37:44.986Z,22.77
2019-05-25T11:40:17.262Z,21.98
2019-05-25T11:42:48.387Z,21.43
2019-05-25T11:45:20.808Z,21.49
2019-05-25T11:47:51.970Z,21.54
2019-05-25T11:50:24.512Z,21.89
2019-05-25T11:52:55.720Z,22.83
2019-05-25T11:55:26.717Z,22.74
2019-05-25T11:57:58.075Z,22.11
2019-05-25T12:00:29.767Z,21.79
2019-05-25T12:03:00.882Z,21.60
2019-05-25T12:05:32.065Z,21.66
2019-05-25T12:08:03.426Z,21.92
2019-05-25T12:10:34.437Z,22.32
2019-05-25T12:13:05.510Z,21.63
2019-05-25T12:15:36.649Z,20.98
2019-05-25T12:18:07.815Z,21.71
2019-05-25T12:20:39.109Z,21.86
2019-05-25T12:23:10.459Z,21.07
2019-05-25T12:25:41.876Z,21.25
2019-05-25T12:28:13.182Z,21.39
2019-05-25T12:30:44.533Z,21.29
2019-05-25T12:33:15.837Z,21.66
2019-05-25T12:35:47.103Z,21.96
2019-05-25T12:38:18.347Z,21.59
2019-05-25T12:40:53.721Z,22.14
2019-05-25T12:43:24.465Z,22.29
2019-05-25T12:45:55.819Z,22.27
2019-05-25T12:48:27.106Z,22.53
2019-05-25T12:50:58.418Z,22.80
2019-05-25T12:53:29.481Z,23.53
2019-05-25T12:56:00.892Z,24.05
2019-05-25T12:58:32.642Z,24.22
2019-05-25T13:01:04.198Z,24.14
2019-05-25T13:03:35.337Z,23.90
2019-05-25T13:06:06.625Z,24.03
2019-05-25T13:08:37.909Z,23.57
2019-05-25T13:11:09.806Z,23.35
2019-05-25T13:13:41.113Z,23.63
2019-05-25T13:16:12.383Z,24.06
2019-05-25T13:18:45.059Z,24.43
2019-05-25T13:21:16.514Z,24.38
2019-05-25T13:23:47.530Z,24.22
2019-05-25T13:26:18.701Z,24.11
2019-05-25T13:28:49.941Z,24.34
2019-05-25T13:31:21.203Z,24.52
2019-05-25T13:33:52.343Z,24.50
2019-05-25T13:36:23.479Z,24.55
2019-05-25T13:38:54.886Z,24.33
2019-05-25T13:41:26.053Z,24.93
2019-05-25T13:43:57.259Z,25.40
2019-05-25T13:46:28.467Z,25.39
2019-05-25T13:48:59.744Z,25.93
2019-05-25T13:51:30.805Z,26.28
2019-05-25T13:54:04.195Z,27.04
2019-05-25T13:56:35.261Z,27.40
2019-05-25T13:59:06.484Z,28.15
2019-05-25T14:01:37.576Z,29.26
2019-05-25T14:04:08.890Z,29.53
2019-05-25T14:06:40.237Z,29.70
2019-05-25T14:09:11.502Z,29.36
2019-05-25T14:11:44.394Z,28.76
2019-05-25T14:14:15.957Z,28.42
2019-05-25T14:16:47.279Z,27.90
2019-05-25T14:19:18.500Z,27.58
2019-05-25T14:21:49.706Z,27.25
2019-05-25T14:24:21.311Z,27.43
2019-05-25T14:26:52.558Z,27.17
2019-05-25T14:29:26.123Z,27.24
2019-05-25T14:31:56.736Z,26.69
2019-05-25T14:34:29.858Z,26.77
2019-05-25T14:37:00.941Z,26.97
2019-05-25T14:39:32.361Z,27.40
2019-05-25T14:42:03.937Z,27.58
2019-05-25T14:44:35.175Z,27.88
2019-05-25T14:47:06.272Z,28.00
2019-05-25T14:49:37.566Z,28.22
2019-05-25T14:52:08.902Z,27.74
2019-05-25T14:54:39.996Z,28.10
2019-05-25T14:57:11.079Z,28.33
2019-05-25T14:59:42.550Z,28.38
2019-05-25T15:02:13.925Z,28.62
2019-05-25T15:04:44.887Z,31.04
2019-05-25T15:07:16.284Z,31.81
2019-05-25T15:09:47.399Z,30.70
2019-05-25T15:12:18.568Z,30.16
2019-05-25T15:14:49.705Z,30.51
2019-05-25T15:17:20.955Z,30.30
2019-05-25T15:19:52.182Z,30.41
2019-05-25T15:22:23.338Z,30.35
2019-05-25T15:24:54.588Z,30.76
2019-05-25T15:27:25.752Z,30.72
2019-05-25T15:29:57.010Z,30.71
2019-05-25T15:32:28.212Z,29.91
2019-05-25T15:34:59.655Z,30.01
2019-05-25T15:37:30.676Z,30.48
2019-05-25T15:40:01.759Z,31.26
2019-05-25T15:42:32.932Z,31.58
2019-05-25T15:45:04.698Z,32.29
2019-05-25T15:47:35.986Z,32.28
2019-05-25T15:50:13.283Z,33.04
2019-05-25T15:52:44.404Z,33.50
2019-05-25T15:55:16.027Z,33.74
2019-05-25T15:57:47.250Z,34.16
2019-05-25T16:00:19.082Z,34.48
2019-05-25T16:02:50.164Z,34.92
2019-05-25T16:05:21.675Z,34.84
2019-05-25T16:07:54.008Z,35.32
2019-05-25T16:10:25.177Z,35.60
2019-05-25T16:12:56.114Z,35.63
2019-05-25T16:15:30.138Z,35.16
2019-05-25T16:18:01.545Z,34.98
2019-05-25T16:20:32.622Z,35.30
2019-05-25T16:23:03.853Z,35.32
2019-05-25T16:25:35.566Z,35.02
2019-05-25T16:28:06.845Z,35.02
2019-05-25T16:30:38.025Z,35.15
2019-05-25T16:33:13.047Z,35.00
2019-05-25T16:35:42.254Z,34.87
2019-05-25T16:38:13.692Z,35.55
2019-05-25T16:40:44.898Z,35.17
2019-05-25T16:43:16.618Z,35.31
2019-05-25T16:45:47.832Z,35.40
2019-05-25T16:48:19.099Z,35.38
2019-05-25T16:50:50.361Z,35.53
2019-05-25T16:53:21.600Z,35.50
2019-05-25T16:55:54.720Z,35.97
2019-05-25T16:58:25.772Z,36.11
2019-05-25T17:00:56.933Z,36.24
2019-05-25T17:03:29.243Z,36.53
2019-05-25T17:06:00.740Z,36.96
2019-05-25T17:08:31.942Z,37.56
2019-05-25T17:11:03.186Z,38.08
2019-05-25T17:13:34.397Z,38.54
2019-05-25T17:16:05.841Z,38.62
2019-05-25T17:18:37.008Z,38.98
2019-05-25T17:21:08.269Z,38.95
2019-05-25T17:23:39.309Z,38.78
2019-05-25T17:26:10.518Z,38.79
2019-05-25T17:28:41.508Z,38.80
2019-05-25T17:31:12.807Z,39.15
2019-05-25T17:33:46.264Z,39.22
2019-05-25T17:36:17.535Z,39.54
2019-05-25T17:38:48.692Z,39.78
2019-05-25T17:41:19.788Z,39.57
2019-05-25T17:43:50.884Z,39.51
2019-05-25T17:46:22.166Z,39.71
2019-05-25T17:48:53.304Z,39.77
2019-05-25T17:51:24.666Z,39.96
2019-05-25T17:53:55.835Z,40.16
2019-05-25T17:56:27.230Z,40.40
2019-05-25T17:58:58.511Z,40.71
2019-05-25T18:01:29.755Z,40.69
2019-05-25T18:04:07.333Z,40.79
2019-05-25T18:06:34.453Z,40.97
2019-05-25T18:09:08.411Z,41.38
2019-05-25T18:11:39.737Z,41.66
2019-05-25T18:14:10.799Z,41.64
2019-05-25T18:16:41.851Z,41.77
2019-05-25T18:19:13.175Z,41.97
2019-05-25T18:21:44.171Z,42.34
2019-05-25T18:24:15.737Z,42.61
2019-05-25T18:26:46.983Z,42.80
2019-05-25T18:29:18.104Z,43.16
2019-05-25T18:31:49.015Z,43.73
2019-05-25T18:34:22.290Z,43.75
2019-05-25T18:36:52.930Z,44.88
2019-05-25T18:39:24.211Z,44.91
2019-05-25T18:41:55.372Z,45.26
2019-05-25T18:44:26.344Z,45.94
2019-05-25T18:46:57.431Z,46.16
2019-05-25T18:49:29.097Z,46.28
2019-05-25T18:52:00.137Z,46.68
2019-05-25T18:54:31.253Z,46.96
2019-05-25T18:57:06.726Z,47.58
2019-05-25T18:59:35.668Z,47.48
2019-05-25T19:02:06.910Z,47.87
2019-05-25T19:04:46.285Z,48.21
2019-05-25T19:07:11.029Z,48.65
2019-05-25T19:09:42.574Z,49.01
2019-05-25T19:12:14.534Z,49.60
2019-05-25T19:14:45.455Z,50.47
2019-05-25T19:17:16.747Z,50.77
2019-05-25T19:19:47.652Z,51.08
2019-05-25T19:22:18.702Z,51.67
2019-05-25T19:24:50.061Z,51.65
2019-05-25T19:27:21.289Z,52.62
2019-05-25T19:29:52.584Z,52.86
2019-05-25T19:32:23.631Z,52.81
2019-05-25T19:34:59.752Z,53.01
2019-05-25T19:37:27.465Z,53.32
2019-05-25T19:39:58.872Z,53.89
2019-05-25T19:42:29.922Z,54.49
2019-05-25T19:45:00.851Z,54.07
2019-05-25T19:47:32.782Z,54.49
2019-05-25T19:50:05.890Z,54.38
2019-05-25T19:52:37.141Z,54.43
2019-05-25T19:55:09.262Z,55.15
2019-05-25T19:57:40.418Z,54.88
2019-05-25T20:00:13.615Z,54.81
2019-05-25T20:02:44.789Z,54.80
2019-05-25T20:05:18.288Z,55.23
2019-05-25T20:07:49.702Z,55.33
2019-05-25T20:10:21.279Z,55.12
2019-05-25T20:12:52.274Z,55.20
2019-05-25T20:15:23.495Z,55.32
2019-05-25T20:17:54.943Z,55.24
2019-05-25T20:20:26.041Z,55.54
2019-05-25T20:22:57.260Z,55.47
2019-05-25T20:25:28.744Z,55.89
2019-05-25T20:27:59.709Z,55.77
2019-05-25T20:30:30.618Z,56.05
2019-05-25T20:33:01.738Z,56.31
2019-05-25T20:35:33.709Z,56.58
2019-05-25T20:38:05.240Z,57.26
2019-05-25T20:40:36.376Z,57.21
2019-05-25T20:43:07.382Z,57.13
2019-05-25T20:45:38.442Z,57.60
2019-05-25T20:48:10.908Z,57.79
2019-05-25T20:50:42.467Z,57.85
2019-05-25T20:53:13.678Z,58.27
2019-05-25T20:55:45.359Z,58.54
2019-05-25T20:58:16.614Z,58.38
2019-05-25T21:00:47.816Z,58.60
2019-05-25T21:03:19.116Z,59.32
2019-05-25T21:05:50.990Z,59.42
2019-05-25T21:08:22.282Z,59.22
2019-05-25T21:10:53.154Z,59.20
2019-05-25T21:13:24.430Z,59.08
2019-05-25T21:15:55.533Z,59.04
2019-05-25T21:18:26.682Z,59.24
2019-05-25T21:20:57.846Z,59.28
2019-05-25T21:23:28.868Z,59.32
2019-05-25T21:26:00.126Z,59.74
2019-05-25T21:28:31.026Z,59.71
2019-05-25T21:31:02.295Z,59.69
2019-05-25T21:33:33.624Z,59.50
2019-05-25T21:36:08.714Z,59.37
2019-05-25T21:38:37.668Z,59.29
2019-05-25T21:41:08.780Z,59.28
2019-05-25T21:43:40.233Z,59.33
2019-05-25T21:46:11.585Z,59.29
2019-05-25T21:48:44.351Z,59.32
2019-05-25T21:51:15.820Z,59.59
2019-05-25T21:53:46.744Z,59.58
2019-05-25T21:56:17.746Z,59.95
2019-05-25T21:58:48.849Z,60.30
2019-05-25T22:01:20.308Z,60.27
2019-05-25T22:03:51.354Z,60.42
2019-05-25T22:06:24.625Z,60.61
2019-05-25T22:08:55.475Z,60.69
2019-05-25T22:11:26.549Z,60.67
2019-05-25T22:13:57.956Z,61.15
2019-05-25T22:16:29.208Z,61.22
2019-05-25T22:19:00.481Z,61.29
2019-05-25T22:21:31.596Z,61.23
2019-05-25T22:24:02.827Z,61.24
2019-05-25T22:26:34.220Z,61.20
2019-05-25T22:29:05.953Z,61.04
2019-05-25T22:31:37.173Z,61.28
2019-05-25T22:34:08.341Z,61.55
2019-05-25T22:36:41.096Z,61.42
2019-05-25T22:39:12.540Z,61.24
2019-05-25T22:41:43.543Z,61.22
2019-05-25T22:44:14.753Z,60.98
2019-05-25T22:46:45.813Z,60.94
2019-05-25T22:49:17.123Z,60.90
2019-05-25T22:51:48.139Z,60.79
2019-05-25T22:54:20.117Z,60.71
2019-05-25T22:56:51.219Z,61.02
2019-05-25T22:59:22.228Z,61.14
2019-05-25T23:01:53.793Z,61.71
2019-05-25T23:04:24.915Z,61.94
2019-05-25T23:06:58.308Z,62.44
2019-05-25T23:09:28.811Z,63.20
2019-05-25T23:11:59.852Z,62.69
2019-05-25T23:14:31.021Z,63.07
2019-05-25T23:17:02.343Z,62.96
2019-05-25T23:19:33.503Z,63.25
2019-05-25T23:22:04.685Z,62.87
2019-05-25T23:24:35.752Z,62.85
2019-05-25T23:27:07.010Z,63.22
2019-05-25T23:29:37.971Z,63.81
2019-05-25T23:32:09.169Z,64.74
2019-05-25T23:34:40.483Z,64.75
2019-05-25T23:37:15.004Z,64.39
2019-05-25T23:39:44.638Z,64.05
2019-05-25T23:42:15.785Z,63.86
2019-05-25T23:44:46.772Z,63.92
2019-05-25T23:47:17.876Z,64.10
2019-05-25T23:49:49.087Z,63.98
2019-05-25T23:52:20.165Z,63.92
2019-05-25T23:54:51.319Z,64.23
2019-05-25T23:57:22.420Z,64.19
2019-05-25T23:59:53.747Z,64.97
